sensor_id;sensor_type;location;lat;lon;timestamp;pressure;altitude;pressure_sealevel;temperature;humidity
68179;BME280;69812;42.632;23.440;2023-05-29T00:02:11;94889.63;;;10.69;94.16
68179;BME280;69812;42.632;23.440;2023-05-29T00:04:37;94890.59;;;10.68;94.46
68179;BME280;69812;42.632;23.440;2023-05-29T00:07:02;94883.03;;;10.66;94.03
68179;BME280;69812;42.632;23.440;2023-05-29T00:09:28;94905.03;;;10.69;93.68
68179;BME280;69812;42.632;23.440;2023-05-29T00:11:57;94902.13;;;10.54;93.31
68179;BME280;69812;42.632;23.440;2023-05-29T00:14:22;94899.69;;;10.53;93.09
68179;BME280;69812;42.632;23.440;2023-05-29T00:16:49;94899.97;;;10.50;93.12
68179;BME280;69812;42.632;23.440;2023-05-29T00:19:15;94902.81;;;10.46;92.72
68179;BME280;69812;42.632;23.440;2023-05-29T00:21:47;94897.66;;;10.46;92.78
68179;BME280;69812;42.632;23.440;2023-05-29T00:24:16;94898.06;;;10.52;93.03
68179;BME280;69812;42.632;23.440;2023-05-29T00:26:42;94885.38;;;10.50;92.87
68179;BME280;69812;42.632;23.440;2023-05-29T00:29:11;94892.41;;;10.38;92.51
68179;BME280;69812;42.632;23.440;2023-05-29T00:31:36;94900.41;;;10.35;92.38
68179;BME280;69812;42.632;23.440;2023-05-29T00:34:02;94891.59;;;10.28;91.94
68179;BME280;69812;42.632;23.440;2023-05-29T00:36:27;94903.50;;;10.19;92.08
68179;BME280;69812;42.632;23.440;2023-05-29T00:38:54;94896.19;;;10.15;92.09
68179;BME280;69812;42.632;23.440;2023-05-29T00:41:20;94900.78;;;10.11;92.08
68179;BME280;69812;42.632;23.440;2023-05-29T00:43:46;94911.19;;;10.00;92.43
68179;BME280;69812;42.632;23.440;2023-05-29T00:46:13;94906.06;;;9.90;92.39
68179;BME280;69812;42.632;23.440;2023-05-29T00:48:40;94898.78;;;9.85;92.72
68179;BME280;69812;42.632;23.440;2023-05-29T00:51:06;94889.31;;;9.86;92.57
68179;BME280;69812;42.632;23.440;2023-05-29T00:53:33;94898.09;;;9.74;93.01
68179;BME280;69812;42.632;23.440;2023-05-29T00:55:59;94888.66;;;9.74;93.17
68179;BME280;69812;42.632;23.440;2023-05-29T00:58:27;94874.19;;;9.73;93.08
68179;BME280;69812;42.632;23.440;2023-05-29T01:00:53;94877.28;;;9.67;93.21
68179;BME280;69812;42.632;23.440;2023-05-29T01:03:20;94889.59;;;9.63;93.09
68179;BME280;69812;42.632;23.440;2023-05-29T01:05:45;94894.03;;;9.61;93.16
68179;BME280;69812;42.632;23.440;2023-05-29T01:08:13;94896.03;;;9.58;93.24
68179;BME280;69812;42.632;23.440;2023-05-29T01:10:39;94889.97;;;9.49;93.26
68179;BME280;69812;42.632;23.440;2023-05-29T01:13:23;94894.16;;;9.50;93.30
68179;BME280;69812;42.632;23.440;2023-05-29T01:16:03;94896.44;;;9.43;93.41
68179;BME280;69812;42.632;23.440;2023-05-29T01:18:49;94896.00;;;9.38;93.40
68179;BME280;69812;42.632;23.440;2023-05-29T01:24:49;94905.97;;;9.32;92.82
68179;BME280;69812;42.632;23.440;2023-05-29T01:27:17;94884.38;;;9.24;92.88
68179;BME280;69812;42.632;23.440;2023-05-29T01:29:45;94875.75;;;9.25;92.91
68179;BME280;69812;42.632;23.440;2023-05-29T01:32:11;94894.53;;;9.36;93.31
68179;BME280;69812;42.632;23.440;2023-05-29T01:34:37;94875.75;;;9.25;93.26
68179;BME280;69812;42.632;23.440;2023-05-29T01:37:02;94884.16;;;9.37;93.61
68179;BME280;69812;42.632;23.440;2023-05-29T01:39:28;94877.91;;;9.30;94.10
68179;BME280;69812;42.632;23.440;2023-05-29T01:41:57;94883.03;;;9.20;94.23
68179;BME280;69812;42.632;23.440;2023-05-29T01:44:24;94888.25;;;9.09;94.56
68179;BME280;69812;42.632;23.440;2023-05-29T01:46:50;94888.66;;;9.14;94.59
68179;BME280;69812;42.632;23.440;2023-05-29T01:49:16;94884.50;;;9.13;94.46
68179;BME280;69812;42.632;23.440;2023-05-29T01:51:42;94873.28;;;9.04;94.75
68179;BME280;69812;42.632;23.440;2023-05-29T01:54:08;94884.63;;;9.12;94.63
68179;BME280;69812;42.632;23.440;2023-05-29T01:56:34;94876.53;;;9.07;94.88
68179;BME280;69812;42.632;23.440;2023-05-29T01:59:02;94887.97;;;9.02;94.77
68179;BME280;69812;42.632;23.440;2023-05-29T02:01:28;94874.31;;;8.92;94.88
68179;BME280;69812;42.632;23.440;2023-05-29T02:03:54;94891.22;;;9.04;95.18
68179;BME280;69812;42.632;23.440;2023-05-29T02:06:20;94885.94;;;9.06;95.45
68179;BME280;69812;42.632;23.440;2023-05-29T02:08:46;94885.53;;;9.11;95.58
68179;BME280;69812;42.632;23.440;2023-05-29T02:11:12;94878.03;;;9.09;95.56
68179;BME280;69812;42.632;23.440;2023-05-29T02:13:38;94870.06;;;9.02;95.86
68179;BME280;69812;42.632;23.440;2023-05-29T02:16:03;94881.78;;;9.05;95.76
68179;BME280;69812;42.632;23.440;2023-05-29T02:18:29;94869.53;;;9.09;95.64
68179;BME280;69812;42.632;23.440;2023-05-29T02:20:54;94859.13;;;9.00;95.91
68179;BME280;69812;42.632;23.440;2023-05-29T02:23:19;94861.41;;;9.03;96.13
68179;BME280;69812;42.632;23.440;2023-05-29T02:25:46;94878.03;;;9.09;96.02
68179;BME280;69812;42.632;23.440;2023-05-29T02:28:11;94875.97;;;9.03;96.46
68179;BME280;69812;42.632;23.440;2023-05-29T02:30:37;94877.16;;;8.99;95.98
68179;BME280;69812;42.632;23.440;2023-05-29T02:33:03;94884.44;;;8.94;96.07
68179;BME280;69812;42.632;23.440;2023-05-29T02:35:28;94887.50;;;8.88;95.66
68179;BME280;69812;42.632;23.440;2023-05-29T02:37:54;94895.41;;;8.84;95.64
68179;BME280;69812;42.632;23.440;2023-05-29T02:40:20;94890.69;;;8.80;95.42
68179;BME280;69812;42.632;23.440;2023-05-29T02:42:46;94896.75;;;8.79;95.56
68179;BME280;69812;42.632;23.440;2023-05-29T02:45:12;94897.31;;;8.82;95.71
68179;BME280;69812;42.632;23.440;2023-05-29T02:47:37;94899.19;;;8.80;95.59
68179;BME280;69812;42.632;23.440;2023-05-29T02:50:03;94885.47;;;8.81;95.67
68179;BME280;69812;42.632;23.440;2023-05-29T02:52:30;94893.81;;;8.83;95.71
68179;BME280;69812;42.632;23.440;2023-05-29T02:54:58;94895.72;;;8.91;95.97
68179;BME280;69812;42.632;23.440;2023-05-29T02:57:24;94887.91;;;8.93;96.07
68179;BME280;69812;42.632;23.440;2023-05-29T02:59:49;94900.66;;;9.14;96.49
68179;BME280;69812;42.632;23.440;2023-05-29T03:02:15;94901.69;;;9.42;97.36
68179;BME280;69812;42.632;23.440;2023-05-29T03:04:40;94896.75;;;9.70;98.39
68179;BME280;69812;42.632;23.440;2023-05-29T03:07:06;94898.91;;;9.84;98.66
68179;BME280;69812;42.632;23.440;2023-05-29T03:09:32;94905.22;;;9.99;99.02
68179;BME280;69812;42.632;23.440;2023-05-29T03:11:58;94901.34;;;10.05;98.87
68179;BME280;69812;42.632;23.440;2023-05-29T03:14:23;94890.38;;;10.13;98.75
68179;BME280;69812;42.632;23.440;2023-05-29T03:16:49;94897.69;;;10.17;98.66
68179;BME280;69812;42.632;23.440;2023-05-29T03:19:14;94877.69;;;10.21;98.11
68179;BME280;69812;42.632;23.440;2023-05-29T03:21:40;94881.09;;;10.31;97.86
68179;BME280;69812;42.632;23.440;2023-05-29T03:24:05;94893.63;;;10.44;97.32
68179;BME280;69812;42.632;23.440;2023-05-29T03:26:31;94896.19;;;10.44;97.09
68179;BME280;69812;42.632;23.440;2023-05-29T03:28:56;94879.88;;;10.35;96.83
68179;BME280;69812;42.632;23.440;2023-05-29T03:31:22;94895.59;;;10.60;97.58
68179;BME280;69812;42.632;23.440;2023-05-29T03:33:48;94905.03;;;10.79;97.52
68179;BME280;69812;42.632;23.440;2023-05-29T03:36:14;94909.28;;;10.98;97.56
68179;BME280;69812;42.632;23.440;2023-05-29T03:38:42;94904.75;;;11.19;97.38
68179;BME280;69812;42.632;23.440;2023-05-29T03:41:08;94916.47;;;11.49;97.41
68179;BME280;69812;42.632;23.440;2023-05-29T03:43:33;94919.31;;;11.74;94.95
68179;BME280;69812;42.632;23.440;2023-05-29T03:45:58;94898.16;;;11.80;93.76
68179;BME280;69812;42.632;23.440;2023-05-29T03:48:26;94927.56;;;12.13;93.44
68179;BME280;69812;42.632;23.440;2023-05-29T03:50:52;94917.06;;;12.51;93.44
68179;BME280;69812;42.632;23.440;2023-05-29T03:53:17;94924.19;;;13.09;92.71
68179;BME280;69812;42.632;23.440;2023-05-29T03:55:42;94917.28;;;14.69;91.21
68179;BME280;69812;42.632;23.440;2023-05-29T03:58:08;94917.53;;;16.32;88.83
68179;BME280;69812;42.632;23.440;2023-05-29T04:00:36;94921.16;;;18.09;74.05
68179;BME280;69812;42.632;23.440;2023-05-29T04:03:03;94925.75;;;19.41;66.11
68179;BME280;69812;42.632;23.440;2023-05-29T04:05:29;94936.22;;;19.96;62.38
68179;BME280;69812;42.632;23.440;2023-05-29T04:07:55;94933.78;;;19.88;58.74
68179;BME280;69812;42.632;23.440;2023-05-29T04:10:25;94936.44;;;19.18;59.28
68179;BME280;69812;42.632;23.440;2023-05-29T04:12:51;94942.47;;;18.69;60.00
68179;BME280;69812;42.632;23.440;2023-05-29T04:15:16;94937.56;;;18.31;61.33
68179;BME280;69812;42.632;23.440;2023-05-29T04:17:42;94946.78;;;17.97;62.41
68179;BME280;69812;42.632;23.440;2023-05-29T04:20:07;94939.78;;;17.61;62.69
68179;BME280;69812;42.632;23.440;2023-05-29T04:22:37;94933.25;;;17.51;63.06
68179;BME280;69812;42.632;23.440;2023-05-29T04:25:05;94944.09;;;17.39;64.09
68179;BME280;69812;42.632;23.440;2023-05-29T04:27:31;94939.63;;;17.33;64.66
68179;BME280;69812;42.632;23.440;2023-05-29T04:30:07;94948.56;;;17.31;66.09
68179;BME280;69812;42.632;23.440;2023-05-29T04:32:33;94949.00;;;17.34;66.83
68179;BME280;69812;42.632;23.440;2023-05-29T04:34:59;94937.91;;;17.11;66.97
68179;BME280;69812;42.632;23.440;2023-05-29T04:37:28;94951.13;;;17.45;66.12
68179;BME280;69812;42.632;23.440;2023-05-29T04:39:54;94951.84;;;17.84;66.31
68179;BME280;69812;42.632;23.440;2023-05-29T04:42:20;94938.97;;;18.12;64.58
68179;BME280;69812;42.632;23.440;2023-05-29T04:44:47;94940.59;;;18.35;63.61
68179;BME280;69812;42.632;23.440;2023-05-29T04:47:14;94943.53;;;18.32;64.04
68179;BME280;69812;42.632;23.440;2023-05-29T04:49:44;94949.75;;;18.52;64.37
68179;BME280;69812;42.632;23.440;2023-05-29T04:52:14;94945.88;;;18.70;64.12
68179;BME280;69812;42.632;23.440;2023-05-29T04:54:40;94956.00;;;19.90;61.06
68179;BME280;69812;42.632;23.440;2023-05-29T04:57:05;94938.34;;;20.74;57.57
68179;BME280;69812;42.632;23.440;2023-05-29T04:59:31;94960.78;;;21.42;56.24
68179;BME280;69812;42.632;23.440;2023-05-29T05:01:56;94962.44;;;21.81;54.08
68179;BME280;69812;42.632;23.440;2023-05-29T05:04:21;94964.81;;;23.97;49.56
68179;BME280;69812;42.632;23.440;2023-05-29T05:06:56;94964.69;;;25.18;44.92
68179;BME280;69812;42.632;23.440;2023-05-29T05:09:21;94966.59;;;24.87;45.17
68179;BME280;69812;42.632;23.440;2023-05-29T05:11:47;94969.09;;;24.10;46.52
68179;BME280;69812;42.632;23.440;2023-05-29T05:14:12;94966.66;;;23.60;46.86
68179;BME280;69812;42.632;23.440;2023-05-29T05:16:37;94972.31;;;23.38;47.84
68179;BME280;69812;42.632;23.440;2023-05-29T05:19:03;94959.47;;;23.48;47.83
68179;BME280;69812;42.632;23.440;2023-05-29T05:21:28;94977.97;;;24.09;47.51
68179;BME280;69812;42.632;23.440;2023-05-29T05:23:56;94971.06;;;26.67;40.06
68179;BME280;69812;42.632;23.440;2023-05-29T05:26:24;94981.69;;;26.72;40.69
68179;BME280;69812;42.632;23.440;2023-05-29T05:28:51;94967.94;;;25.96;41.64
68179;BME280;69812;42.632;23.440;2023-05-29T05:31:16;94974.53;;;25.46;42.22
68179;BME280;69812;42.632;23.440;2023-05-29T05:33:45;94967.63;;;24.98;44.80
68179;BME280;69812;42.632;23.440;2023-05-29T05:36:11;94963.69;;;24.05;44.39
68179;BME280;69812;42.632;23.440;2023-05-29T05:38:36;94962.38;;;23.03;46.95
68179;BME280;69812;42.632;23.440;2023-05-29T05:41:04;94960.66;;;23.52;46.25
68179;BME280;69812;42.632;23.440;2023-05-29T05:43:29;94965.06;;;24.56;44.50
68179;BME280;69812;42.632;23.440;2023-05-29T05:45:55;94951.94;;;24.56;43.51
68179;BME280;69812;42.632;23.440;2023-05-29T05:48:22;94960.75;;;23.64;46.81
68179;BME280;69812;42.632;23.440;2023-05-29T05:50:48;94966.34;;;22.10;49.78
68179;BME280;69812;42.632;23.440;2023-05-29T05:53:13;94965.75;;;21.57;50.55
68179;BME280;69812;42.632;23.440;2023-05-29T05:55:38;94972.81;;;21.36;51.53
68179;BME280;69812;42.632;23.440;2023-05-29T05:58:04;94971.66;;;20.92;53.76
68179;BME280;69812;42.632;23.440;2023-05-29T06:00:29;94978.09;;;20.08;57.29
68179;BME280;69812;42.632;23.440;2023-05-29T06:02:55;94985.84;;;19.81;57.53
68179;BME280;69812;42.632;23.440;2023-05-29T06:05:22;94969.47;;;19.94;57.81
68179;BME280;69812;42.632;23.440;2023-05-29T06:07:47;94978.59;;;20.45;56.99
68179;BME280;69812;42.632;23.440;2023-05-29T06:10:13;94973.59;;;20.30;54.29
68179;BME280;69812;42.632;23.440;2023-05-29T06:12:38;94975.25;;;20.64;55.89
68179;BME280;69812;42.632;23.440;2023-05-29T06:15:04;94966.25;;;20.60;54.91
68179;BME280;69812;42.632;23.440;2023-05-29T06:17:30;94986.28;;;21.26;54.21
68179;BME280;69812;42.632;23.440;2023-05-29T06:19:55;94986.09;;;20.81;54.15
68179;BME280;69812;42.632;23.440;2023-05-29T06:22:20;94991.88;;;21.57;52.49
68179;BME280;69812;42.632;23.440;2023-05-29T06:24:46;94990.97;;;21.89;50.17
68179;BME280;69812;42.632;23.440;2023-05-29T06:27:11;94981.81;;;21.67;52.21
68179;BME280;69812;42.632;23.440;2023-05-29T06:29:37;94986.00;;;22.26;50.74
68179;BME280;69812;42.632;23.440;2023-05-29T06:32:02;94978.91;;;22.33;50.02
68179;BME280;69812;42.632;23.440;2023-05-29T06:34:27;94975.34;;;23.35;48.01
68179;BME280;69812;42.632;23.440;2023-05-29T06:36:53;94980.50;;;25.82;42.57
68179;BME280;69812;42.632;23.440;2023-05-29T06:39:18;94982.03;;;27.43;37.61
68179;BME280;69812;42.632;23.440;2023-05-29T06:41:45;94981.50;;;30.06;34.56
68179;BME280;69812;42.632;23.440;2023-05-29T06:44:11;94977.72;;;33.36;28.68
68179;BME280;69812;42.632;23.440;2023-05-29T06:46:36;94974.69;;;35.29;25.76
68179;BME280;69812;42.632;23.440;2023-05-29T06:49:01;94964.09;;;35.98;24.76
68179;BME280;69812;42.632;23.440;2023-05-29T06:51:27;94966.22;;;37.50;22.93
68179;BME280;69812;42.632;23.440;2023-05-29T06:53:52;94957.19;;;38.35;22.00
68179;BME280;69812;42.632;23.440;2023-05-29T06:56:17;94964.56;;;38.29;22.25
68179;BME280;69812;42.632;23.440;2023-05-29T06:58:43;94962.50;;;40.08;20.04
68179;BME280;69812;42.632;23.440;2023-05-29T07:01:09;94962.56;;;40.20;18.41
68179;BME280;69812;42.632;23.440;2023-05-29T07:03:37;94961.66;;;42.56;16.89
68179;BME280;69812;42.632;23.440;2023-05-29T07:06:03;94954.09;;;42.62;17.27
68179;BME280;69812;42.632;23.440;2023-05-29T07:08:29;94949.44;;;42.34;16.57
68179;BME280;69812;42.632;23.440;2023-05-29T07:10:54;94944.50;;;42.36;17.71
68179;BME280;69812;42.632;23.440;2023-05-29T07:13:20;94949.00;;;42.44;17.46
68179;BME280;69812;42.632;23.440;2023-05-29T07:15:47;94949.22;;;43.40;16.35
68179;BME280;69812;42.632;23.440;2023-05-29T07:18:13;94958.28;;;42.87;16.43
68179;BME280;69812;42.632;23.440;2023-05-29T07:20:38;94948.81;;;40.21;18.04
68179;BME280;69812;42.632;23.440;2023-05-29T07:23:03;94953.84;;;35.58;22.92
68179;BME280;69812;42.632;23.440;2023-05-29T07:25:29;94951.09;;;32.33;26.70
68179;BME280;69812;42.632;23.440;2023-05-29T07:27:55;94958.09;;;30.71;29.36
68179;BME280;69812;42.632;23.440;2023-05-29T07:30:21;94953.66;;;28.17;33.60
68179;BME280;69812;42.632;23.440;2023-05-29T07:32:46;94947.41;;;27.79;34.88
68179;BME280;69812;42.632;23.440;2023-05-29T07:35:12;94946.66;;;25.33;40.21
68179;BME280;69812;42.632;23.440;2023-05-29T07:37:37;94953.03;;;31.52;30.64
68179;BME280;69812;42.632;23.440;2023-05-29T07:40:03;94943.38;;;35.02;23.75
68179;BME280;69812;42.632;23.440;2023-05-29T07:42:32;94955.84;;;29.54;30.96
68179;BME280;69812;42.632;23.440;2023-05-29T07:44:58;94941.06;;;27.02;35.45
68179;BME280;69812;42.632;23.440;2023-05-29T07:47:26;94935.59;;;32.06;29.45
68179;BME280;69812;42.632;23.440;2023-05-29T07:49:52;94934.19;;;37.76;21.02
68179;BME280;69812;42.632;23.440;2023-05-29T07:52:17;94947.81;;;43.14;16.14
68179;BME280;69812;42.632;23.440;2023-05-29T07:54:43;94938.59;;;48.36;11.93
68179;BME280;69812;42.632;23.440;2023-05-29T07:57:11;94946.66;;;48.21;11.56
68179;BME280;69812;42.632;23.440;2023-05-29T07:59:40;94924.69;;;46.96;12.43
68179;BME280;69812;42.632;23.440;2023-05-29T08:02:07;94939.53;;;51.29;9.95
68179;BME280;69812;42.632;23.440;2023-05-29T08:04:32;94948.25;;;49.92;10.21
68179;BME280;69812;42.632;23.440;2023-05-29T08:07:01;94927.72;;;47.28;11.91
68179;BME280;69812;42.632;23.440;2023-05-29T08:09:28;94925.09;;;39.64;19.10
68179;BME280;69812;42.632;23.440;2023-05-29T08:11:56;94916.44;;;37.49;20.17
68179;BME280;69812;42.632;23.440;2023-05-29T08:14:23;94932.56;;;37.58;20.14
68179;BME280;69812;42.632;23.440;2023-05-29T08:16:49;94932.06;;;39.65;17.39
68179;BME280;69812;42.632;23.440;2023-05-29T08:19:15;94926.56;;;41.79;15.84
68179;BME280;69812;42.632;23.440;2023-05-29T08:21:40;94920.72;;;40.94;16.44
68179;BME280;69812;42.632;23.440;2023-05-29T08:24:08;94930.00;;;34.55;23.06
68179;BME280;69812;42.632;23.440;2023-05-29T08:26:34;94938.66;;;31.63;26.50
68179;BME280;69812;42.632;23.440;2023-05-29T08:29:00;94938.97;;;32.61;25.53
68179;BME280;69812;42.632;23.440;2023-05-29T08:31:26;94933.38;;;35.26;24.40
68179;BME280;69812;42.632;23.440;2023-05-29T08:33:52;94925.78;;;36.53;21.85
68179;BME280;69812;42.632;23.440;2023-05-29T08:36:17;94932.72;;;34.31;24.68
68179;BME280;69812;42.632;23.440;2023-05-29T08:38:46;94923.41;;;36.15;21.99
68179;BME280;69812;42.632;23.440;2023-05-29T08:41:25;94922.44;;;35.09;22.99
68179;BME280;69812;42.632;23.440;2023-05-29T08:43:54;94922.19;;;31.71;27.45
68179;BME280;69812;42.632;23.440;2023-05-29T08:46:21;94919.94;;;30.37;29.17
68179;BME280;69812;42.632;23.440;2023-05-29T08:48:48;94912.69;;;29.01;31.47
68179;BME280;69812;42.632;23.440;2023-05-29T08:51:16;94920.91;;;27.24;34.53
68179;BME280;69812;42.632;23.440;2023-05-29T08:53:47;94911.38;;;26.22;37.96
68179;BME280;69812;42.632;23.440;2023-05-29T08:56:13;94906.31;;;26.66;37.65
68179;BME280;69812;42.632;23.440;2023-05-29T08:58:38;94911.50;;;26.95;36.86
68179;BME280;69812;42.632;23.440;2023-05-29T09:01:04;94925.47;;;26.61;35.04
68179;BME280;69812;42.632;23.440;2023-05-29T09:03:30;94916.00;;;24.56;39.38
68179;BME280;69812;42.632;23.440;2023-05-29T09:05:59;94905.19;;;24.65;40.89
68179;BME280;69812;42.632;23.440;2023-05-29T09:08:25;94911.00;;;24.78;40.49
68179;BME280;69812;42.632;23.440;2023-05-29T09:10:53;94909.97;;;24.14;40.86
68179;BME280;69812;42.632;23.440;2023-05-29T09:13:20;94910.03;;;23.77;40.09
68179;BME280;69812;42.632;23.440;2023-05-29T09:15:46;94906.75;;;23.82;40.13
68179;BME280;69812;42.632;23.440;2023-05-29T09:18:11;94902.56;;;24.53;39.95
68179;BME280;69812;42.632;23.440;2023-05-29T09:20:37;94909.22;;;24.07;38.60
68179;BME280;69812;42.632;23.440;2023-05-29T09:23:07;94897.06;;;24.54;38.41
68179;BME280;69812;42.632;23.440;2023-05-29T09:25:38;94896.09;;;25.67;39.09
68179;BME280;69812;42.632;23.440;2023-05-29T09:28:06;94882.75;;;25.56;36.52
68179;BME280;69812;42.632;23.440;2023-05-29T09:30:40;94893.22;;;26.09;37.44
68179;BME280;69812;42.632;23.440;2023-05-29T09:33:08;94880.69;;;26.44;36.88
68179;BME280;69812;42.632;23.440;2023-05-29T09:35:41;94887.56;;;26.79;34.52
68179;BME280;69812;42.632;23.440;2023-05-29T09:38:11;94877.22;;;25.70;35.15
68179;BME280;69812;42.632;23.440;2023-05-29T09:40:38;94882.59;;;25.75;35.52
68179;BME280;69812;42.632;23.440;2023-05-29T09:43:17;94872.88;;;26.83;34.28
68179;BME280;69812;42.632;23.440;2023-05-29T09:45:46;94873.25;;;27.48;34.68
68179;BME280;69812;42.632;23.440;2023-05-29T09:48:14;94867.56;;;27.17;33.11
68179;BME280;69812;42.632;23.440;2023-05-29T09:50:43;94869.84;;;26.41;35.86
68179;BME280;69812;42.632;23.440;2023-05-29T09:53:26;94865.41;;;26.13;37.72
68179;BME280;69812;42.632;23.440;2023-05-29T09:55:57;94863.06;;;25.71;37.80
68179;BME280;69812;42.632;23.440;2023-05-29T09:58:24;94858.59;;;25.83;38.17
68179;BME280;69812;42.632;23.440;2023-05-29T10:00:53;94868.63;;;25.46;37.55
68179;BME280;69812;42.632;23.440;2023-05-29T10:03:21;94867.63;;;25.75;37.85
68179;BME280;69812;42.632;23.440;2023-05-29T10:05:49;94871.38;;;25.39;36.37
68179;BME280;69812;42.632;23.440;2023-05-29T10:08:18;94863.06;;;25.18;37.92
68179;BME280;69812;42.632;23.440;2023-05-29T10:11:01;94868.88;;;25.09;36.65
68179;BME280;69812;42.632;23.440;2023-05-29T10:13:34;94862.16;;;25.65;36.26
68179;BME280;69812;42.632;23.440;2023-05-29T10:16:03;94853.09;;;26.47;36.46
68179;BME280;69812;42.632;23.440;2023-05-29T10:18:36;94856.47;;;26.76;35.22
68179;BME280;69812;42.632;23.440;2023-05-29T10:21:02;94851.75;;;27.17;35.35
68179;BME280;69812;42.632;23.440;2023-05-29T10:23:30;94860.44;;;27.84;33.51
68179;BME280;69812;42.632;23.440;2023-05-29T10:26:06;94847.19;;;28.60;31.76
68179;BME280;69812;42.632;23.440;2023-05-29T10:28:39;94844.00;;;28.96;31.05
68179;BME280;69812;42.632;23.440;2023-05-29T10:31:14;94852.78;;;29.06;30.72
68179;BME280;69812;42.632;23.440;2023-05-29T10:34:02;94841.03;;;28.50;31.13
68179;BME280;69812;42.632;23.440;2023-05-29T10:36:38;94842.25;;;27.82;31.66
68179;BME280;69812;42.632;23.440;2023-05-29T10:39:05;94858.19;;;27.43;32.00
68179;BME280;69812;42.632;23.440;2023-05-29T10:41:32;94855.72;;;26.98;32.88
68179;BME280;69812;42.632;23.440;2023-05-29T10:44:03;94849.13;;;26.78;33.50
68179;BME280;69812;42.632;23.440;2023-05-29T10:49:17;94839.53;;;26.89;32.74
68179;BME280;69812;42.632;23.440;2023-05-29T10:51:48;94836.44;;;27.14;35.15
68179;BME280;69812;42.632;23.440;2023-05-29T10:54:14;94841.75;;;25.96;36.80
68179;BME280;69812;42.632;23.440;2023-05-29T10:56:44;94828.28;;;25.92;35.92
68179;BME280;69812;42.632;23.440;2023-05-29T10:59:10;94837.03;;;25.69;35.61
68179;BME280;69812;42.632;23.440;2023-05-29T11:01:38;94827.22;;;25.93;34.96
68179;BME280;69812;42.632;23.440;2023-05-29T11:06:45;94830.72;;;25.41;36.12
68179;BME280;69812;42.632;23.440;2023-05-29T11:09:37;94821.53;;;26.13;35.57
68179;BME280;69812;42.632;23.440;2023-05-29T11:12:24;94819.59;;;26.09;34.63
68179;BME280;69812;42.632;23.440;2023-05-29T11:15:08;94819.44;;;26.32;33.61
68179;BME280;69812;42.632;23.440;2023-05-29T11:23:02;94803.00;;;27.59;31.74
68179;BME280;69812;42.632;23.440;2023-05-29T11:25:29;94809.22;;;27.75;32.03
68179;BME280;69812;42.632;23.440;2023-05-29T11:27:59;94792.84;;;27.45;32.66
68179;BME280;69812;42.632;23.440;2023-05-29T11:30:24;94786.13;;;27.60;32.36
68179;BME280;69812;42.632;23.440;2023-05-29T11:32:52;94802.44;;;27.57;32.55
68179;BME280;69812;42.632;23.440;2023-05-29T11:35:19;94823.41;;;25.44;37.55
68179;BME280;69812;42.632;23.440;2023-05-29T11:37:47;94823.41;;;23.05;43.79
68179;BME280;69812;42.632;23.440;2023-05-29T11:40:13;94830.81;;;21.89;49.50
68179;BME280;69812;42.632;23.440;2023-05-29T11:42:43;94831.44;;;20.21;56.98
68179;BME280;69812;42.632;23.440;2023-05-29T11:45:18;94829.06;;;20.26;58.45
68179;BME280;69812;42.632;23.440;2023-05-29T11:47:58;94835.63;;;20.55;56.20
68179;BME280;69812;42.632;23.440;2023-05-29T11:50:28;94831.00;;;20.84;55.69
68179;BME280;69812;42.632;23.440;2023-05-29T11:52:56;94829.16;;;21.04;54.61
68179;BME280;69812;42.632;23.440;2023-05-29T11:55:25;94830.72;;;21.12;52.83
68179;BME280;69812;42.632;23.440;2023-05-29T11:57:56;94838.66;;;21.37;52.78
68179;BME280;69812;42.632;23.440;2023-05-29T12:00:25;94828.09;;;21.70;51.10
68179;BME280;69812;42.632;23.440;2023-05-29T12:02:51;94834.56;;;21.61;52.01
68179;BME280;69812;42.632;23.440;2023-05-29T12:05:17;94830.84;;;21.82;52.18
68179;BME280;69812;42.632;23.440;2023-05-29T12:07:55;94832.50;;;22.59;50.01
68179;BME280;69812;42.632;23.440;2023-05-29T12:10:22;94820.88;;;23.16;50.60
68179;BME280;69812;42.632;23.440;2023-05-29T12:12:51;94824.16;;;23.79;45.75
68179;BME280;69812;42.632;23.440;2023-05-29T12:15:17;94820.03;;;24.37;46.21
68179;BME280;69812;42.632;23.440;2023-05-29T12:17:46;94814.75;;;24.02;43.71
68179;BME280;69812;42.632;23.440;2023-05-29T12:20:14;94812.91;;;23.72;42.55
68179;BME280;69812;42.632;23.440;2023-05-29T12:22:41;94825.25;;;23.53;46.47
68179;BME280;69812;42.632;23.440;2023-05-29T12:25:10;94810.66;;;24.06;43.68
68179;BME280;69812;42.632;23.440;2023-05-29T12:27:39;94823.66;;;24.24;42.30
68179;BME280;69812;42.632;23.440;2023-05-29T12:32:44;94816.06;;;25.05;42.11
68179;BME280;69812;42.632;23.440;2023-05-29T12:35:27;94814.06;;;25.36;41.72
68179;BME280;69812;42.632;23.440;2023-05-29T12:38:02;94814.66;;;25.26;41.77
68179;BME280;69812;42.632;23.440;2023-05-29T12:40:30;94814.72;;;24.67;43.21
68179;BME280;69812;42.632;23.440;2023-05-29T12:43:01;94818.56;;;24.29;42.55
68179;BME280;69812;42.632;23.440;2023-05-29T12:45:29;94817.72;;;24.05;44.03
68179;BME280;69812;42.632;23.440;2023-05-29T12:48:07;94809.81;;;23.82;43.71
68179;BME280;69812;42.632;23.440;2023-05-29T12:50:37;94807.63;;;22.93;46.71
68179;BME280;69812;42.632;23.440;2023-05-29T12:53:11;94811.31;;;21.53;50.29
68179;BME280;69812;42.632;23.440;2023-05-29T12:55:38;94812.16;;;20.75;52.54
68179;BME280;69812;42.632;23.440;2023-05-29T12:58:05;94811.00;;;20.58;52.17
68179;BME280;69812;42.632;23.440;2023-05-29T13:00:32;94813.19;;;20.27;52.45
68179;BME280;69812;42.632;23.440;2023-05-29T13:02:58;94808.59;;;20.16;50.51
68179;BME280;69812;42.632;23.440;2023-05-29T13:05:23;94808.81;;;20.35;50.70
68179;BME280;69812;42.632;23.440;2023-05-29T13:07:50;94815.22;;;20.65;50.75
68179;BME280;69812;42.632;23.440;2023-05-29T13:10:16;94812.50;;;20.99;50.64
68179;BME280;69812;42.632;23.440;2023-05-29T13:12:41;94810.97;;;20.78;49.98